Time;durP1;ratioP1;P1;durP2;ratioP2;P2;SDS_P1;SDS_P2;PMS_P1;PMS_P2;Temp;Humidity;BMP_temperature;BMP_pressure;BME280_temperature;BME280_humidity;BME280_pressure;Samples;Min_cycle;Max_cycle;Signal;HPM_P1;HPM_P2
2024/01/28 09:04:53;;;;;;;;;;;;;;;;;;5972616;23;19945;-95
2024/01/28 09:07:18;;;;;;;;;;;;;;;;;;4935365;29;19946;-95
2024/01/28 09:09:44;;;;;;;;;;;;;;;;;;4935342;29;19915;-95
2024/01/28 09:12:09;;;;;;;;;;;;;;;;;;4922357;29;20433;-96
2024/01/28 09:14:35;;;;;;;;;;;;;;;;;;4903105;29;19926;-92
2024/01/28 09:17:00;;;;;;;;;;;;;;;;;;4912239;29;19919;-94
2024/01/28 09:19:26;;;;;;;;;;;;;;;;;;4918660;29;20250;-94
2024/01/28 09:21:51;;;;;;;;;;;;;;;;;;4917725;29;19937;-94
2024/01/28 09:24:17;;;;;;;;;;;;;;;;;;4908945;29;20283;-95
2024/01/28 09:26:42;;;;;;;;;;;;;;;;;;4900568;29;19916;-94
2024/01/28 09:29:07;;;;;;;;;;;;;;;;;;4904045;29;20006;-96
2024/01/28 09:31:36;;;;;;;;;;;;;;;;;;4904771;29;19966;-96
2024/01/28 09:34:03;;;;;;;;;;;;;;;;;;4908924;29;19915;-94
2024/01/28 09:36:28;;;;;;;;;;;;;;;;;;4951842;23;19922;-96
2024/01/28 09:38:55;;;;;;;;;;;;;;;;;;4954685;29;19918;-95
2024/01/28 09:41:33;;;;;;;;;;;;;;;;;;4960198;29;19918;-95
2024/01/28 09:43:59;;;;;;;;;;;;;;;;;;4960281;29;19914;-96
2024/01/28 09:46:26;;;;;;;;;;;;;;;;;;4972238;28;19914;-96
2024/01/28 09:48:52;;;;;;;;;;;;;;;;;;4950709;29;19921;-96
2024/01/28 09:51:23;;;;;;;;;;;;;;;;;;4954736;29;19958;-96
2024/01/28 09:53:54;;;;;;;;;;;;;;;;;;4951316;29;19914;-96
2024/01/28 11:50:17;;;;;;;2.95;2.65;;;;;;;;;;4892285;29;20068;-96
2024/01/28 11:52:46;;;;;;;2.58;2.38;;;;;;;;;;4894741;29;20068;-96
2024/01/28 11:55:17;;;;;;;2.50;2.30;;;;;;;;;;4913907;29;20037;-96
2024/01/28 11:57:44;;;;;;;2.65;2.30;;;;;;;;;;4870285;29;20033;-95
2024/01/28 12:00:11;;;;;;;4.03;2.53;;;;;;;;;;4903974;29;20105;-95
2024/01/28 12:02:37;;;;;;;3.00;2.47;;;;;;;;;;4907766;29;20040;-95
2024/01/28 12:05:03;;;;;;;2.53;2.25;;;;;;;;;;4900987;29;20044;-96
2024/01/28 12:07:33;;;;;;;2.95;2.33;;;;;;;;;;4901590;29;20032;-96
2024/01/28 12:10:12;;;;;;;2.50;2.30;;;;;;;;;;4901830;29;20025;-94
2024/01/28 12:12:40;;;;;;;3.05;2.28;;;;;;;;;;4900546;29;20025;-94
2024/01/28 12:15:07;;;;;;;3.63;2.30;;;;;;;;;;4898923;29;20468;-95
2024/01/28 12:17:40;;;;;;;3.25;2.63;;;;;;;;;;4899045;29;20052;-94
2024/01/28 12:20:07;;;;;;;2.65;2.20;;;;;;;;;;4898835;29;20357;-94
2024/01/28 12:22:40;;;;;;;2.15;1.95;;;;;;;;;;4898937;29;20084;-94
2024/01/28 12:25:19;;;;;;;4.78;2.92;;;;;;;;;;4898717;29;20028;-95
2024/01/28 12:27:44;;;;;;;6.93;5.28;;;;;;;;;;4899593;29;20033;-93
2024/01/28 12:30:31;;;;;;;2.75;2.50;;;;;;;;;;4904400;29;20112;-96
2024/01/28 12:32:57;;;;;;;3.45;2.35;;;;;;;;;;4903218;29;20461;-95
2024/01/28 12:35:22;;;;;;;1.95;1.77;;;;;;;;;;4903204;29;20040;-89
2024/01/28 12:37:48;;;;;;;2.63;2.15;;;;;;;;;;4899228;29;20070;-92
2024/01/28 12:40:13;;;;;;;2.20;2.00;;;;;;;;;;4898340;29;20045;-90
2024/01/28 12:42:40;;;;;;;2.15;1.92;;;;;;;;;;4897992;29;20025;-90
2024/01/28 12:45:06;;;;;;;2.50;2.30;;;;;;;;;;4897924;29;20044;-91
2024/01/28 12:47:34;;;;;;;3.30;2.13;;;;;;;;;;4898127;29;20045;-90
2024/01/28 12:50:05;;;;;;;2.33;2.00;;;;;;;;;;4911679;29;20056;-96
2024/01/28 12:52:30;;;;;;;2.10;1.73;;;;;;;;;;4918865;29;20111;-96
2024/01/28 12:55:02;;;;;;;1.95;1.70;;;;;;;;;;4919872;29;20467;-95
2024/01/28 12:57:28;;;;;;;3.05;2.55;;;;;;;;;;4923226;29;20115;-96
2024/01/28 12:59:53;;;;;;;2.92;2.03;;;;;;;;;;4922313;29;20029;-94
2024/01/28 13:02:20;;;;;;;2.92;1.90;;;;;;;;;;4922240;29;20032;-95
2024/01/28 13:04:47;;;;;;;2.20;1.90;;;;;;;;;;4950550;23;20046;-94
2024/01/28 13:07:13;;;;;;;2.97;2.78;;;;;;;;;;4944890;28;20024;-94
2024/01/28 13:09:38;;;;;;;;;;;;;;;;;;4929149;28;20035;-94
2024/01/28 13:12:03;;;;;;;;;;;;;;;;;;4945084;29;19947;-95
2024/01/28 13:14:29;;;;;;;;;;;;;;;;;;4939101;29;19903;-95
2024/01/28 13:16:55;;;;;;;;;;;;;;;;;;4926687;29;19903;-95
2024/01/28 13:19:25;;;;;;;;;;;;;;;;;;4910735;29;19934;-94
2024/01/28 13:21:52;;;;;;;;;;;;;;;;;;4936179;29;19925;-94
2024/01/28 13:24:18;;;;;;;;;;;;;;;;;;4956088;29;19987;-94
2024/01/28 13:26:46;;;;;;;;;;;;;;;;;;4959301;29;19911;-94
2024/01/28 13:29:11;;;;;;;;;;;;;;;;;;4948067;29;19921;-94
2024/01/28 13:31:37;;;;;;;;;;;;;;;;;;4958838;29;19914;-95
2024/01/28 13:34:03;;;;;;;;;;;;;;;;;;4956129;29;19965;-94
2024/01/28 13:36:28;;;;;;;;;;;;;;;;;;4957324;29;19950;-95
2024/01/28 13:38:55;;;;;;;;;;;;;;;;;;4956179;29;19926;-94
2024/01/28 13:41:23;;;;;;;;;;;;;;;;;;4925639;29;19919;-95
2024/01/28 13:43:49;;;;;;;;;;;;;;;;;;4941165;29;19915;-95
2024/01/28 13:46:16;;;;;;;;;;;;;;;;;;4956915;29;19921;-94
2024/01/28 13:48:41;;;;;;;;;;;;;;;;;;4956103;29;19957;-94
2024/01/28 13:51:06;;;;;;;;;;;;;;;;;;4938546;29;19910;-95
2024/01/28 13:53:32;;;;;;;;;;;;;;;;;;4953357;29;19915;-94
2024/01/28 13:55:58;;;;;;;;;;;;;;;;;;4956809;29;19918;-94
2024/01/28 13:58:26;;;;;;;;;;;;;;;;;;4956789;29;19906;-95
2024/01/28 14:00:51;;;;;;;;;;;;;;;;;;4944109;29;19913;-95
2024/01/28 14:03:38;;;;;;;;;;;;;;;;;;4957357;29;19919;-96
2024/01/28 14:06:04;;;;;;;;;;;;;;;;;;4956835;29;19930;-96
2024/01/28 14:08:29;;;;;;;;;;;;;;;;;;4962438;29;19902;-95
2024/01/28 14:10:54;;;;;;;;;;;;;;;;;;4975494;28;19925;-96
2024/01/28 14:13:21;;;;;;;;;;;;;;;;;;4961904;29;19903;-96
2024/01/28 14:15:47;;;;;;;;;;;;;;;;;;4978212;28;19899;-95
2024/01/28 14:18:14;;;;;;;;;;;;;;;;;;4961467;28;19918;-96
2024/01/28 14:20:40;;;;;;;;;;;;;;;;;;4951052;29;19915;-96
2024/01/28 14:23:10;;;;;;;;;;;;;;;;;;4953265;29;19914;-96
2024/01/28 14:25:41;;;;;;;;;;;;;;;;;;4953371;29;20005;-96
2024/01/28 14:28:07;;;;;;;;;;;;;;;;;;4959177;29;19937;-96
2024/01/28 14:30:33;;;;;;;;;;;;;;;;;;4915872;29;20362;-96
2024/01/28 14:32:58;;;;;;;;;;;;;;;;;;4927516;29;20337;-94
2024/01/28 14:35:23;;;;;;;;;;;;;;;;;;4952110;28;19943;-95
2024/01/28 14:37:49;;;;;;;;;;;;;;;;;;4945261;29;19922;-92
2024/01/28 14:40:15;;;;;;;;;;;;;;;;;;4940783;29;19915;-94
2024/01/28 14:42:40;;;;;;;;;;;;;;;;;;4940232;29;19915;-94
2024/01/28 14:45:06;;;;;;;;;;;;;;;;;;4940073;29;20285;-93
2024/01/28 14:47:31;;;;;;;;;;;;;;;;;;4954452;29;20277;-90
2024/01/28 14:49:57;;;;;;;;;;;;;;;;;;4954237;29;20397;-91
2024/01/28 14:52:22;;;;;;;;;;;;;;;;;;4939023;29;19921;-91
2024/01/28 14:54:48;;;;;;;;;;;;;;;;;;4939784;29;19978;-90
2024/01/28 14:57:13;;;;;;;;;;;;;;;;;;4933123;29;19926;-90
2024/01/28 14:59:38;;;;;;;;;;;;;;;;;;4947250;29;19922;-89
2024/01/28 15:02:06;;;;;;;;;;;;;;;;;;4938497;29;20374;-88
2024/01/28 15:04:32;;;;;;;;;;;;;;;;;;4919844;29;19926;-91
2024/01/28 15:06:57;;;;;;;;;;;;;;;;;;4919555;29;19946;-92
2024/01/28 15:09:22;;;;;;;;;;;;;;;;;;4936067;29;19923;-90
2024/01/28 15:11:48;;;;;;;;;;;;;;;;;;4919293;29;19962;-90
2024/01/28 15:14:13;;;;;;;;;;;;;;;;;;4920046;29;19940;-90
2024/01/28 15:16:40;;;;;;;;;;;;;;;;;;4920676;29;19923;-91
2024/01/28 15:19:06;;;;;;;;;;;;;;;;;;4922323;29;19911;-90
2024/01/28 15:21:31;;;;;;;;;;;;;;;;;;4928555;29;20289;-92
2024/01/28 15:23:57;;;;;;;;;;;;;;;;;;4929934;29;19914;-91
2024/01/28 15:26:24;;;;;;;;;;;;;;;;;;4925298;29;19923;-90
2024/01/28 15:28:49;;;;;;;;;;;;;;;;;;4921236;29;19971;-90
2024/01/28 15:31:15;;;;;;;;;;;;;;;;;;4921099;29;19911;-94
2024/01/28 15:33:40;;;;;;;;;;;;;;;;;;4918270;29;19969;-89
2024/01/28 15:36:06;;;;;;;;;;;;;;;;;;4918442;29;19914;-90
2024/01/28 15:38:31;;;;;;;;;;;;;;;;;;4919421;29;19969;-89
2024/01/28 15:40:56;;;;;;;;;;;;;;;;;;4917616;29;19918;-88
2024/01/28 15:43:22;;;;;;;;;;;;;;;;;;4920174;29;19915;-89
2024/01/28 15:45:48;;;;;;;;;;;;;;;;;;4933528;29;19919;-89
2024/01/28 15:48:14;;;;;;;;;;;;;;;;;;4933689;29;19915;-89
2024/01/28 15:50:39;;;;;;;;;;;;;;;;;;4919092;29;19934;-90
2024/01/28 15:53:05;;;;;;;;;;;;;;;;;;4934072;29;20408;-96
2024/01/28 15:55:30;;;;;;;;;;;;;;;;;;4934677;29;19915;-91
2024/01/28 15:57:56;;;;;;;;;;;;;;;;;;4918298;29;19915;-91
2024/01/28 16:00:21;;;;;;;;;;;;;;;;;;4934084;29;19914;-90
2024/01/28 16:02:47;;;;;;;;;;;;;;;;;;4934276;29;19946;-91
2024/01/28 16:05:12;;;;;;;;;;;;;;;;;;4949491;28;19922;-91
2024/01/28 16:07:37;;;;;;;;;;;;;;;;;;4933005;29;19926;-88
2024/01/28 16:10:03;;;;;;;;;;;;;;;;;;4922194;29;19922;-89
2024/01/28 16:12:28;;;;;;;;;;;;;;;;;;4916938;29;19926;-89
2024/01/28 16:14:54;;;;;;;;;;;;;;;;;;4918483;29;19994;-89
2024/01/28 16:17:23;;;;;;;;;;;;;;;;;;4917246;29;19915;-89
2024/01/28 16:19:48;;;;;;;;;;;;;;;;;;4901608;29;19915;-88
2024/01/28 16:22:14;;;;;;;;;;;;;;;;;;4902797;29;19926;-91
2024/01/28 16:24:39;;;;;;;;;;;;;;;;;;4901850;29;19915;-88
2024/01/28 16:27:04;;;;;;;;;;;;;;;;;;4901755;29;19971;-88
2024/01/28 16:29:32;;;;;;;;;;;;;;;;;;4901863;29;19919;-89
2024/01/28 16:31:57;;;;;;;;;;;;;;;;;;4919140;29;19923;-90
2024/01/28 16:34:23;;;;;;;;;;;;;;;;;;4901772;29;20397;-89
2024/01/28 16:36:48;;;;;;;;;;;;;;;;;;4901526;29;20013;-89
2024/01/28 16:39:13;;;;;;;;;;;;;;;;;;4918451;29;19925;-89
2024/01/28 16:41:39;;;;;;;;;;;;;;;;;;4919539;29;19974;-89
2024/01/28 16:44:05;;;;;;;;;;;;;;;;;;4918683;29;19929;-89
2024/01/28 16:46:32;;;;;;;;;;;;;;;;;;4919636;29;19919;-88
2024/01/28 16:48:57;;;;;;;;;;;;;;;;;;4935702;29;19925;-89
2024/01/28 16:51:23;;;;;;;;;;;;;;;;;;4936862;29;19914;-88
2024/01/28 16:53:48;;;;;;;;;;;;;;;;;;4935324;29;19915;-88
2024/01/28 16:56:13;;;;;;;;;;;;;;;;;;4935310;29;19974;-89
2024/01/28 16:58:39;;;;;;;;;;;;;;;;;;4919701;29;20270;-89
2024/01/28 17:01:05;;;;;;;;;;;;;;;;;;4935552;29;19914;-88
2024/01/28 17:03:31;;;;;;;;;;;;;;;;;;4937032;29;19915;-89
2024/01/28 17:05:56;;;;;;;;;;;;;;;;;;4932141;29;19919;-88
2024/01/28 17:08:22;;;;;;;;;;;;;;;;;;4916683;29;19915;-88
2024/01/28 17:10:47;;;;;;;;;;;;;;;;;;4918064;29;20001;-88
2024/01/28 17:13:13;;;;;;;;;;;;;;;;;;4932291;29;19915;-88
2024/01/28 17:15:39;;;;;;;;;;;;;;;;;;4932441;29;20373;-88
2024/01/28 17:18:06;;;;;;;;;;;;;;;;;;4932550;29;20017;-88
2024/01/28 17:20:31;;;;;;;;;;;;;;;;;;4932579;29;19915;-88
2024/01/28 17:22:57;;;;;;;;;;;;;;;;;;4916857;29;20066;-88
2024/01/28 17:25:22;;;;;;;;;;;;;;;;;;4933112;29;19915;-89
2024/01/28 17:27:47;;;;;;;;;;;;;;;;;;4933405;29;19915;-88
2024/01/28 17:30:13;;;;;;;;;;;;;;;;;;4932574;29;20017;-88
2024/01/28 17:32:38;;;;;;;;;;;;;;;;;;4918062;29;19915;-88
2024/01/28 17:35:04;;;;;;;;;;;;;;;;;;4932409;29;19926;-88
2024/01/28 17:37:31;;;;;;;;;;;;;;;;;;4917915;29;19919;-87
2024/01/28 17:39:56;;;;;;;;;;;;;;;;;;4917792;29;19922;-88
2024/01/28 17:42:21;;;;;;;;;;;;;;;;;;4932114;29;19981;-88
2024/01/28 17:44:47;;;;;;;;;;;;;;;;;;4917514;29;19954;-88
2024/01/28 17:47:12;;;;;;;;;;;;;;;;;;4934044;29;19915;-88
2024/01/28 17:49:38;;;;;;;;;;;;;;;;;;4921134;29;19914;-88
2024/01/28 17:52:06;;;;;;;;;;;;;;;;;;4921477;29;19970;-88
2024/01/28 17:54:32;;;;;;;;;;;;;;;;;;4935876;29;20014;-88
2024/01/28 17:56:57;;;;;;;;;;;;;;;;;;4921083;29;20343;-88
2024/01/28 17:59:23;;;;;;;;;;;;;;;;;;4921243;29;19922;-88
2024/01/28 18:01:48;;;;;;;;;;;;;;;;;;4922073;29;19995;-88
2024/01/28 18:04:13;;;;;;;;;;;;;;;;;;4935422;29;19919;-88
2024/01/28 18:06:39;;;;;;;;;;;;;;;;;;4935736;29;19915;-88
2024/01/28 18:09:07;;;;;;;;;;;;;;;;;;4920873;29;19970;-88
2024/01/28 18:11:32;;;;;;;;;;;;;;;;;;4935603;29;19915;-88
2024/01/28 18:14:04;;;;;;;;;;;;;;;;;;4920950;29;20370;-90
2024/01/28 18:16:29;;;;;;;;;;;;;;;;;;4920921;29;19954;-88
2024/01/28 18:18:55;;;;;;;;;;;;;;;;;;4935576;29;20385;-88
2024/01/28 18:21:21;;;;;;;;;;;;;;;;;;4921165;29;19946;-89
2024/01/28 18:23:47;;;;;;;;;;;;;;;;;;4933982;29;19965;-89
2024/01/28 18:26:13;;;;;;;;;;;;;;;;;;4920345;29;19918;-93
2024/01/28 18:28:38;;;;;;;;;;;;;;;;;;4936601;29;20277;-92
2024/01/28 18:31:04;;;;;;;;;;;;;;;;;;4936429;29;20039;-92
2024/01/28 18:33:33;;;;;;;;;;;;;;;;;;4921367;29;20289;-92
2024/01/28 18:36:00;;;;;;;;;;;;;;;;;;4926557;29;19923;-91
2024/01/28 18:38:25;;;;;;;;;;;;;;;;;;4922484;29;20014;-93
2024/01/28 18:40:50;;;;;;;;;;;;;;;;;;4920610;29;20378;-93
2024/01/28 18:43:16;;;;;;;;;;;;;;;;;;4920286;29;20235;-91
2024/01/28 18:45:41;;;;;;;;;;;;;;;;;;4920318;29;20014;-91
2024/01/28 18:48:12;;;;;;;;;;;;;;;;;;4919567;29;19915;-90
2024/01/28 18:50:41;;;;;;;;;;;;;;;;;;4919071;29;19919;-88
2024/01/28 18:53:07;;;;;;;;;;;;;;;;;;4920770;29;19915;-90
2024/01/28 18:55:32;;;;;;;;;;;;;;;;;;4919646;29;19922;-93
2024/01/28 18:57:58;;;;;;;;;;;;;;;;;;4935470;29;19915;-92
2024/01/28 19:00:23;;;;;;;;;;;;;;;;;;4918973;29;19962;-93
2024/01/28 19:02:48;;;;;;;;;;;;;;;;;;4919228;29;20355;-90
2024/01/28 19:05:14;;;;;;;;;;;;;;;;;;4933962;29;19933;-91
2024/01/28 19:07:40;;;;;;;;;;;;;;;;;;4939322;29;19915;-91
2024/01/28 19:10:06;;;;;;;;;;;;;;;;;;4939318;29;19923;-91
2024/01/28 19:12:31;;;;;;;;;;;;;;;;;;4939115;29;19961;-91
2024/01/28 19:14:57;;;;;;;;;;;;;;;;;;4939128;29;19925;-92
2024/01/28 19:17:22;;;;;;;;;;;;;;;;;;4939272;29;19915;-92
2024/01/28 19:19:47;;;;;;;;;;;;;;;;;;4940477;29;20330;-92
2024/01/28 19:22:15;;;;;;;;;;;;;;;;;;4938968;29;19919;-92
2024/01/28 19:24:40;;;;;;;;;;;;;;;;;;4939565;29;19997;-93
2024/01/28 19:27:05;;;;;;;;;;;;;;;;;;4939226;29;19953;-93
2024/01/28 19:29:31;;;;;;;;;;;;;;;;;;4938353;29;19918;-90
2024/01/28 19:31:58;;;;;;;;;;;;;;;;;;4924878;29;19915;-90
2024/01/28 19:34:23;;;;;;;;;;;;;;;;;;4918996;29;19922;-93
2024/01/28 19:36:49;;;;;;;;;;;;;;;;;;4918891;29;19915;-89
2024/01/28 19:39:14;;;;;;;;;;;;;;;;;;4919284;29;19919;-91
2024/01/28 19:41:41;;;;;;;;;;;;;;;;;;4920679;29;19923;-89
2024/01/28 19:44:06;;;;;;;;;;;;;;;;;;4920676;29;19993;-92
2024/01/28 19:46:31;;;;;;;;;;;;;;;;;;4920837;29;19911;-91
2024/01/28 19:48:57;;;;;;;;;;;;;;;;;;4920153;29;19923;-91
2024/01/28 19:51:25;;;;;;;;;;;;;;;;;;4920498;29;19918;-94
2024/01/28 19:53:50;;;;;;;;;;;;;;;;;;4927775;29;20454;-91
2024/01/28 19:56:17;;;;;;;;;;;;;;;;;;4937490;29;19933;-92
2024/01/28 19:58:43;;;;;;;;;;;;;;;;;;4921924;29;19966;-92
2024/01/28 20:01:08;;;;;;;;;;;;;;;;;;4922137;29;20366;-92
2024/01/28 20:03:34;;;;;;;;;;;;;;;;;;4938573;29;19910;-91
2024/01/28 20:05:59;;;;;;;;;;;;;;;;;;4921126;29;19919;-91
2024/01/28 20:08:24;;;;;;;;;;;;;;;;;;4921483;29;20259;-91
2024/01/28 20:10:50;;;;;;;;;;;;;;;;;;4921789;29;20282;-90
2024/01/28 20:13:17;;;;;;;;;;;;;;;;;;4937929;29;20089;-92
2024/01/28 20:15:43;;;;;;;;;;;;;;;;;;4937915;29;20005;-91
2024/01/28 20:18:09;;;;;;;;;;;;;;;;;;4922169;29;19918;-92
2024/01/28 20:20:34;;;;;;;;;;;;;;;;;;4937562;29;19918;-91
2024/01/28 20:22:59;;;;;;;;;;;;;;;;;;4938794;29;20013;-92
2024/01/28 20:25:25;;;;;;;;;;;;;;;;;;4937401;29;19919;-90
2024/01/28 20:27:50;;;;;;;;;;;;;;;;;;4921819;29;20014;-93
2024/01/28 20:30:15;;;;;;;;;;;;;;;;;;4937159;29;19915;-92
2024/01/28 20:32:41;;;;;;;;;;;;;;;;;;4938004;29;19918;-91
2024/01/28 20:35:10;;;;;;;;;;;;;;;;;;4920697;29;19914;-90
2024/01/28 20:37:36;;;;;;;;;;;;;;;;;;4936938;29;19978;-91
2024/01/28 20:40:01;;;;;;;;;;;;;;;;;;4936715;29;19918;-91
2024/01/28 20:42:28;;;;;;;;;;;;;;;;;;4937305;29;19922;-90
2024/01/28 20:44:54;;;;;;;;;;;;;;;;;;4936968;29;19915;-91
2024/01/28 20:47:19;;;;;;;;;;;;;;;;;;4936928;29;19915;-93
2024/01/28 20:49:46;;;;;;;;;;;;;;;;;;4936812;29;19918;-94
2024/01/28 20:52:12;;;;;;;;;;;;;;;;;;4937936;29;19915;-95
2024/01/28 20:54:37;;;;;;;;;;;;;;;;;;4936911;29;20421;-94
2024/01/28 20:57:06;;;;;;;;;;;;;;;;;;4936942;29;20363;-94
2024/01/28 20:59:35;;;;;;;;;;;;;;;;;;4938480;29;19919;-95
2024/01/28 21:02:02;;;;;;;;;;;;;;;;;;4940513;29;20380;-95
2024/01/28 21:04:27;;;;;;;;;;;;;;;;;;4939812;29;19964;-95
2024/01/28 21:06:52;;;;;;;;;;;;;;;;;;4939103;29;19915;-96
2024/01/28 21:09:18;;;;;;;;;;;;;;;;;;4937446;29;20388;-95
2024/01/28 21:11:43;;;;;;;;;;;;;;;;;;4937667;29;19965;-95
2024/01/28 21:14:10;;;;;;;;;;;;;;;;;;4937258;29;20288;-94
2024/01/28 21:16:35;;;;;;;;;;;;;;;;;;4937286;29;19919;-94
2024/01/28 21:19:00;;;;;;;;;;;;;;;;;;4937478;29;19997;-94
2024/01/28 21:21:26;;;;;;;;;;;;;;;;;;4938843;29;19958;-91
2024/01/28 21:23:51;;;;;;;;;;;;;;;;;;4939740;29;19911;-93
2024/01/28 21:26:16;;;;;;;;;;;;;;;;;;4939968;29;19922;-93
2024/01/28 21:28:43;;;;;;;;;;;;;;;;;;4939522;29;19970;-94
2024/01/28 21:31:08;;;;;;;;;;;;;;;;;;4937438;29;20362;-92
2024/01/28 21:33:34;;;;;;;;;;;;;;;;;;4936839;29;19921;-94
2024/01/28 21:35:59;;;;;;;;;;;;;;;;;;4936615;29;19914;-94
2024/01/28 21:38:25;;;;;;;;;;;;;;;;;;4937440;29;19919;-94
2024/01/28 21:40:50;;;;;;;;;;;;;;;;;;4937051;29;20014;-92
2024/01/28 21:43:15;;;;;;;;;;;;;;;;;;4936685;29;19946;-94
2024/01/28 21:45:41;;;;;;;;;;;;;;;;;;4936030;29;19919;-93
2024/01/28 21:48:06;;;;;;;;;;;;;;;;;;4936765;29;19914;-95
2024/01/28 21:50:32;;;;;;;;;;;;;;;;;;4936710;29;19915;-94
2024/01/28 21:52:57;;;;;;;;;;;;;;;;;;4920626;29;19918;-95
2024/01/28 21:55:23;;;;;;;;;;;;;;;;;;4936783;29;19915;-95
2024/01/28 21:57:48;;;;;;;;;;;;;;;;;;4937227;29;19977;-94
2024/01/28 22:00:14;;;;;;;;;;;;;;;;;;4925938;29;19970;-95
2024/01/28 22:02:39;;;;;;;;;;;;;;;;;;4901891;29;19915;-92
2024/01/28 22:05:04;;;;;;;;;;;;;;;;;;4917792;29;19947;-92
2024/01/28 22:07:30;;;;;;;;;;;;;;;;;;4917395;29;20441;-93
2024/01/28 22:09:55;;;;;;;;;;;;;;;;;;4916874;29;19918;-91
2024/01/28 22:12:20;;;;;;;;;;;;;;;;;;4918265;29;19915;-91
2024/01/28 22:14:46;;;;;;;;;;;;;;;;;;4927397;29;20017;-91
2024/01/28 22:17:11;;;;;;;;;;;;;;;;;;4927755;29;19922;-90
2024/01/28 22:19:36;;;;;;;;;;;;;;;;;;4936386;29;20033;-90
2024/01/28 22:22:02;;;;;;;;;;;;;;;;;;4936021;29;20441;-94
2024/01/28 22:24:27;;;;;;;;;;;;;;;;;;4935686;29;20370;-93
2024/01/28 22:26:52;;;;;;;;;;;;;;;;;;4935731;29;20013;-91
2024/01/28 22:29:18;;;;;;;;;;;;;;;;;;4935711;29;19961;-91
2024/01/28 22:31:43;;;;;;;;;;;;;;;;;;4935683;29;19915;-91
2024/01/28 22:34:10;;;;;;;;;;;;;;;;;;4938470;29;19914;-92
2024/01/28 22:36:35;;;;;;;;;;;;;;;;;;4940124;29;19925;-91
2024/01/28 22:39:00;;;;;;;;;;;;;;;;;;4930119;29;19919;-93
2024/01/28 22:41:27;;;;;;;;;;;;;;;;;;4924745;29;19915;-92
2024/01/28 22:43:53;;;;;;;;;;;;;;;;;;4920048;29;19970;-95
2024/01/28 22:46:18;;;;;;;;;;;;;;;;;;4904128;29;19915;-91
2024/01/28 22:48:44;;;;;;;;;;;;;;;;;;4919634;29;19923;-94
2024/01/28 22:51:10;;;;;;;;;;;;;;;;;;4919695;29;19915;-90
2024/01/28 22:53:35;;;;;;;;;;;;;;;;;;4919639;29;20013;-91
2024/01/28 22:56:02;;;;;;;;;;;;;;;;;;4919591;29;19915;-93
2024/01/28 22:58:27;;;;;;;;;;;;;;;;;;4935422;29;19940;-94
2024/01/28 23:00:53;;;;;;;;;;;;;;;;;;4939340;29;20018;-91
2024/01/28 23:03:19;;;;;;;;;;;;;;;;;;4939945;29;19922;-92
